createdAt,value
2022-10-10T00:01:57.514Z,96043.59
2022-10-10T00:04:26.787Z,96047.72
2022-10-10T00:06:54.669Z,96040.84
2022-10-10T00:09:22.971Z,96016.59
2022-10-10T00:11:50.833Z,96046.31
2022-10-10T00:14:18.720Z,96058.38
2022-10-10T00:16:46.587Z,96056.00
2022-10-10T00:19:14.801Z,96052.81
2022-10-10T00:21:44.048Z,96055.00
2022-10-10T00:24:11.895Z,96049.47
2022-10-10T00:26:39.722Z,96048.81
2022-10-10T00:29:07.575Z,96036.09
2022-10-10T00:31:35.450Z,96044.53
2022-10-10T00:34:03.295Z,96049.31
2022-10-10T00:36:31.216Z,96041.69
2022-10-10T00:39:01.506Z,96044.84
2022-10-10T00:41:29.808Z,96041.38
2022-10-10T00:44:09.297Z,96030.84
2022-10-10T00:46:37.279Z,96042.81
2022-10-10T00:49:07.273Z,96043.88
2022-10-10T00:51:35.377Z,96046.78
2022-10-10T00:54:07.956Z,96048.03
2022-10-10T00:56:41.127Z,96042.94
2022-10-10T00:59:11.253Z,96049.00
2022-10-10T01:01:39.415Z,96045.03
2022-10-10T01:04:07.584Z,96049.94
2022-10-10T01:06:35.929Z,96035.31
2022-10-10T01:09:05.196Z,96061.69
2022-10-10T01:11:46.025Z,96052.63
2022-10-10T01:14:21.212Z,96040.06
2022-10-10T01:16:59.136Z,96056.41
2022-10-10T01:19:56.870Z,96058.78
2022-10-10T01:22:33.796Z,96059.09
2022-10-10T01:25:18.325Z,96064.81
2022-10-10T01:27:51.894Z,96068.75
2022-10-10T01:30:23.739Z,96066.69
2022-10-10T01:32:55.072Z,96064.31
2022-10-10T01:35:35.296Z,96061.81
2022-10-10T01:38:15.351Z,96056.72
2022-10-10T01:40:48.589Z,96058.00
2022-10-10T01:43:17.988Z,96050.53
2022-10-10T01:45:48.273Z,96053.53
2022-10-10T01:48:20.976Z,96058.78
2022-10-10T01:51:05.271Z,96051.19
2022-10-10T01:53:42.113Z,96046.09
2022-10-10T01:56:14.915Z,96051.19
2022-10-10T01:59:09.499Z,96067.00
2022-10-10T02:01:48.007Z,96060.19
2022-10-10T02:04:24.496Z,96064.16
2022-10-10T02:06:56.647Z,96066.84
2022-10-10T02:09:30.231Z,96058.91
2022-10-10T02:12:00.789Z,96055.56
2022-10-10T02:14:34.256Z,96062.38
2022-10-10T02:17:05.297Z,96050.47
2022-10-10T02:19:33.765Z,96067.63
2022-10-10T02:22:03.119Z,96066.34
2022-10-10T02:24:31.092Z,96062.97
2022-10-10T02:27:06.196Z,96066.00
2022-10-10T02:29:38.117Z,96077.31
2022-10-10T02:32:12.580Z,96068.41
2022-10-10T02:34:46.657Z,96062.03
2022-10-10T02:37:16.705Z,96061.88
2022-10-10T02:39:47.969Z,96069.00
2022-10-10T02:42:19.011Z,96066.94
2022-10-10T02:44:48.123Z,96069.63
2022-10-10T02:47:17.888Z,96018.31
2022-10-10T02:49:45.983Z,96071.59
2022-10-10T02:52:16.052Z,96071.41
2022-10-10T02:54:44.288Z,96057.56
2022-10-10T02:57:12.797Z,96077.66
2022-10-10T02:59:40.891Z,96074.00
2022-10-10T03:02:09.052Z,96068.28
2022-10-10T03:04:38.745Z,96067.59
2022-10-10T03:07:07.106Z,96076.53
2022-10-10T03:09:35.117Z,96067.00
2022-10-10T03:12:03.207Z,96074.28
2022-10-10T03:14:31.208Z,96064.72
2022-10-10T03:16:59.078Z,96070.28
2022-10-10T03:19:27.066Z,96071.66
2022-10-10T03:21:56.299Z,96086.63
2022-10-10T03:24:24.164Z,96082.19
2022-10-10T03:26:52.028Z,96082.84
2022-10-10T03:29:19.916Z,96095.47
2022-10-10T03:31:47.782Z,96080.31
2022-10-10T03:34:15.652Z,96092.59
2022-10-10T03:36:43.637Z,96092.59
2022-10-10T03:39:12.878Z,96086.84
2022-10-10T03:41:40.690Z,96091.91
2022-10-10T03:44:08.547Z,96094.72
2022-10-10T03:46:36.399Z,96096.25
2022-10-10T03:49:04.815Z,96091.47
2022-10-10T03:51:32.641Z,96084.91
2022-10-10T03:54:00.571Z,96091.22
2022-10-10T03:56:29.814Z,96092.63
2022-10-10T03:59:00.589Z,96094.84
2022-10-10T04:01:28.732Z,96094.97
2022-10-10T04:03:56.768Z,96096.19
2022-10-10T04:06:24.640Z,96097.91
2022-10-10T04:08:52.598Z,96093.91
2022-10-10T04:11:20.605Z,96067.06
2022-10-10T04:13:49.815Z,96100.09
2022-10-10T04:16:17.682Z,96094.56
2022-10-10T04:18:45.540Z,96099.75
2022-10-10T04:21:13.581Z,96102.31
2022-10-10T04:23:41.629Z,96097.91
2022-10-10T04:26:09.934Z,96105.84
2022-10-10T04:28:37.869Z,96078.06
2022-10-10T04:31:07.360Z,96096.44
2022-10-10T04:33:35.260Z,96097.66
2022-10-10T04:36:03.120Z,96099.19
2022-10-10T04:38:30.968Z,96099.00
2022-10-10T04:40:58.856Z,96101.59
2022-10-10T04:43:26.801Z,96105.75
2022-10-10T04:45:56.812Z,96101.84
2022-10-10T04:48:26.780Z,96110.03
2022-10-10T04:50:55.086Z,96106.38
2022-10-10T04:53:23.367Z,96143.03
2022-10-10T04:55:51.352Z,96102.94
2022-10-10T04:58:19.648Z,96105.19
2022-10-10T05:00:52.427Z,96075.00
2022-10-10T05:03:20.329Z,96113.19
2022-10-10T05:05:49.727Z,96093.81
2022-10-10T05:08:18.292Z,96112.72
2022-10-10T05:10:47.790Z,96116.97
2022-10-10T05:13:17.692Z,96083.78
2022-10-10T05:15:45.615Z,96109.63
2022-10-10T05:18:13.470Z,96118.31
2022-10-10T05:20:43.912Z,96123.19
2022-10-10T05:23:13.160Z,96121.22
2022-10-10T05:25:41.428Z,96121.75
2022-10-10T05:28:09.363Z,96128.53
2022-10-10T05:30:37.292Z,96132.00
2022-10-10T05:33:05.409Z,96122.56
2022-10-10T05:35:33.307Z,96050.94
2022-10-10T05:38:01.177Z,96136.09
2022-10-10T05:40:30.385Z,96146.00
2022-10-10T05:42:58.310Z,96138.31
2022-10-10T05:45:26.184Z,96137.81
2022-10-10T05:47:54.130Z,96148.84
2022-10-10T05:50:31.152Z,96144.91
2022-10-10T05:52:59.055Z,96147.00
2022-10-10T05:55:27.055Z,96157.91
2022-10-10T05:57:56.334Z,96153.25
2022-10-10T06:00:24.542Z,96154.16
2022-10-10T06:02:52.827Z,96152.47
2022-10-10T06:05:20.969Z,96151.28
2022-10-10T06:08:09.383Z,96155.84
2022-10-10T06:10:37.231Z,96154.06
2022-10-10T06:13:06.467Z,96155.44
2022-10-10T06:15:34.515Z,96162.66
2022-10-10T06:18:02.488Z,96160.66
2022-10-10T06:20:30.480Z,96168.22
2022-10-10T06:22:58.467Z,96160.78
2022-10-10T06:25:40.013Z,96153.91
2022-10-10T06:28:10.197Z,96160.16
2022-10-10T06:30:41.258Z,96138.84
2022-10-10T06:33:09.159Z,96175.84
2022-10-10T06:35:40.213Z,96171.91
2022-10-10T06:38:08.237Z,96171.00
2022-10-10T06:40:36.128Z,96178.22
2022-10-10T06:43:04.644Z,96175.34
2022-10-10T06:45:37.496Z,96177.13
2022-10-10T06:48:05.756Z,96208.28
2022-10-10T06:50:33.771Z,96148.81
2022-10-10T06:53:01.677Z,96179.53
2022-10-10T06:55:29.580Z,96182.25
2022-10-10T06:57:58.151Z,96177.72
2022-10-10T07:00:26.536Z,96186.22
2022-10-10T07:02:55.858Z,96178.72
2022-10-10T07:05:23.716Z,96179.63
2022-10-10T07:07:53.432Z,96178.28
2022-10-10T07:10:21.512Z,96174.56
2022-10-10T07:12:49.372Z,96191.28
2022-10-10T07:15:17.402Z,96172.78
2022-10-10T07:17:47.352Z,96185.84
2022-10-10T07:20:19.839Z,96176.84
2022-10-10T07:22:47.701Z,96179.66
2022-10-10T07:25:15.764Z,96181.00
2022-10-10T07:27:43.636Z,96177.56
2022-10-10T07:30:12.885Z,96168.88
2022-10-10T07:32:40.763Z,96171.50
2022-10-10T07:35:09.391Z,96172.94
2022-10-10T07:37:38.629Z,96171.03
2022-10-10T07:40:08.586Z,96170.53
2022-10-10T07:42:36.577Z,96164.28
2022-10-10T07:45:05.283Z,96165.50
2022-10-10T07:47:33.181Z,96162.88
2022-10-10T07:50:01.044Z,96158.22
2022-10-10T07:52:28.908Z,96154.75
2022-10-10T07:54:58.199Z,96157.50
2022-10-10T07:57:26.042Z,96159.44
2022-10-10T07:59:53.992Z,96159.56
2022-10-10T08:02:21.851Z,96151.69
2022-10-10T08:04:50.101Z,96158.53
2022-10-10T08:07:19.579Z,96146.06
2022-10-10T08:09:47.424Z,96151.69
2022-10-10T08:12:16.708Z,96148.22
2022-10-10T08:14:44.624Z,96149.91
2022-10-10T08:17:12.487Z,96145.59
2022-10-10T08:19:40.363Z,96157.09
2022-10-10T08:22:08.395Z,96151.38
2022-10-10T08:24:36.252Z,96150.22
2022-10-10T08:27:04.152Z,96157.78
2022-10-10T08:29:34.631Z,96157.56
2022-10-10T08:32:02.831Z,96155.13
2022-10-10T08:34:30.703Z,96157.03
2022-10-10T08:36:58.615Z,96149.31
2022-10-10T08:39:26.461Z,96155.88
2022-10-10T08:41:57.796Z,96149.72
2022-10-10T08:44:31.638Z,96156.59
2022-10-10T08:47:04.407Z,96110.38
2022-10-10T08:49:36.292Z,96155.09
2022-10-10T08:52:09.544Z,96162.19
2022-10-10T08:54:39.016Z,96154.44
2022-10-10T08:57:19.334Z,96151.47
2022-10-10T08:59:47.533Z,96154.44
2022-10-10T09:02:43.918Z,96159.38
2022-10-10T09:05:21.504Z,96159.78
2022-10-10T09:08:13.513Z,96164.63
2022-10-10T09:10:54.462Z,96157.47
2022-10-10T09:13:33.012Z,96156.16
2022-10-10T09:16:03.659Z,96149.66
2022-10-10T09:18:49.976Z,96164.78
2022-10-10T09:21:21.589Z,96160.00
2022-10-10T09:23:55.012Z,96163.13
2022-10-10T09:26:27.184Z,96167.00
2022-10-10T09:29:01.308Z,96171.06
2022-10-10T09:31:35.108Z,96176.22
2022-10-10T09:34:13.501Z,96180.63
2022-10-10T09:36:41.583Z,96165.28
2022-10-10T09:39:20.578Z,96165.91
2022-10-10T09:41:55.405Z,96011.50
2022-10-10T09:44:23.999Z,96138.00
2022-10-10T09:46:52.423Z,96178.22
2022-10-10T09:49:22.440Z,96156.78
2022-10-10T09:51:51.116Z,96169.78
2022-10-10T09:54:20.772Z,96178.78
2022-10-10T09:56:53.199Z,96167.16
2022-10-10T09:59:46.149Z,96172.81
2022-10-10T10:02:15.962Z,96170.19
2022-10-10T10:04:45.929Z,96160.63
2022-10-10T10:07:29.427Z,96165.59
2022-10-10T10:09:59.234Z,96126.16
2022-10-10T10:12:30.483Z,96134.56
2022-10-10T10:15:04.487Z,96156.88
2022-10-10T10:17:32.492Z,96154.09
2022-10-10T10:20:01.685Z,96150.19
2022-10-10T10:22:35.546Z,96145.78
2022-10-10T10:25:31.922Z,96146.31
2022-10-10T10:28:17.994Z,96130.09
2022-10-10T10:30:46.548Z,96143.69
2022-10-10T10:33:26.306Z,96146.44
2022-10-10T10:36:01.810Z,96137.66
2022-10-10T10:38:42.947Z,96143.28
2022-10-10T10:41:18.676Z,96133.91
2022-10-10T10:44:02.639Z,96132.38
2022-10-10T10:46:45.887Z,96121.41
2022-10-10T10:49:18.791Z,95992.31
2022-10-10T10:52:04.376Z,96126.50
2022-10-10T10:54:45.633Z,96129.25
2022-10-10T10:57:32.130Z,96132.38
2022-10-10T11:00:22.155Z,96130.44
2022-10-10T11:03:35.050Z,96131.38
2022-10-10T11:06:06.860Z,96110.13
2022-10-10T11:09:02.699Z,96107.69
2022-10-10T11:11:42.729Z,96099.84
2022-10-10T11:14:26.708Z,96085.72
2022-10-10T11:17:00.212Z,96099.69
2022-10-10T11:19:33.426Z,96093.41
2022-10-10T11:22:07.324Z,96096.50
2022-10-10T11:24:45.926Z,96098.44
2022-10-10T11:27:20.199Z,96099.75
2022-10-10T11:29:58.674Z,96096.16
2022-10-10T11:32:31.826Z,96096.94
2022-10-10T11:35:17.484Z,96043.88
2022-10-10T11:37:51.120Z,96084.19
2022-10-10T11:40:43.826Z,96088.16
2022-10-10T11:43:20.789Z,96085.44
2022-10-10T11:45:56.755Z,96074.16
2022-10-10T11:48:37.779Z,95906.59
2022-10-10T11:51:19.472Z,96068.78
2022-10-10T11:53:52.772Z,96061.06
2022-10-10T11:56:30.270Z,96060.06
2022-10-10T11:59:03.490Z,96056.09
2022-10-10T12:01:34.766Z,96050.16
2022-10-10T12:04:02.635Z,96046.34
2022-10-10T12:06:36.613Z,96043.41
2022-10-10T12:09:10.957Z,96043.41
2022-10-10T12:11:44.090Z,96044.09
2022-10-10T12:14:18.064Z,96046.88
2022-10-10T12:16:46.595Z,96052.78
2022-10-10T12:19:19.724Z,96044.84
2022-10-10T12:21:57.165Z,96036.88
2022-10-10T12:24:26.799Z,96035.81
2022-10-10T12:27:28.307Z,96033.94
2022-10-10T12:30:18.035Z,96036.69
2022-10-10T12:32:47.966Z,96025.50
2022-10-10T12:35:32.035Z,96032.94
2022-10-10T12:38:15.521Z,96026.78
2022-10-10T12:41:13.949Z,96021.16
2022-10-10T12:44:13.487Z,96026.41
2022-10-10T12:46:42.124Z,96019.53
2022-10-10T12:49:21.606Z,96015.53
2022-10-10T12:52:04.340Z,96015.38
2022-10-10T12:54:38.974Z,95861.00
2022-10-10T12:57:15.473Z,96008.78
2022-10-10T12:59:44.955Z,96013.69
2022-10-10T13:02:19.563Z,96009.03
2022-10-10T13:04:49.555Z,95991.75
2022-10-10T13:07:22.143Z,96013.00
2022-10-10T13:09:51.941Z,96007.31
2022-10-10T13:12:25.860Z,96018.69
2022-10-10T13:14:55.744Z,96017.91
2022-10-10T13:17:26.271Z,96011.53
2022-10-10T13:19:55.372Z,95989.34
2022-10-10T13:22:24.438Z,95990.00
2022-10-10T13:24:53.582Z,96009.91
2022-10-10T13:27:23.771Z,95989.75
2022-10-10T13:29:53.004Z,96018.09
2022-10-10T13:32:26.646Z,96014.88
2022-10-10T13:34:58.199Z,96003.00
2022-10-10T13:37:26.980Z,96004.44
2022-10-10T13:39:55.369Z,95989.03
2022-10-10T13:42:30.994Z,96012.59
2022-10-10T13:45:00.383Z,95990.84
2022-10-10T13:47:54.672Z,96010.53
2022-10-10T13:50:28.786Z,95997.88
2022-10-10T13:53:25.460Z,96019.38
2022-10-10T13:56:01.191Z,96011.88
2022-10-10T13:58:31.819Z,96020.16
2022-10-10T14:01:02.625Z,96014.16
2022-10-10T14:03:35.105Z,96017.28
2022-10-10T14:06:03.051Z,96004.31
2022-10-10T14:08:34.616Z,95960.50
2022-10-10T14:11:05.536Z,96010.59
2022-10-10T14:13:35.562Z,96015.53
2022-10-10T14:16:22.904Z,96008.44
2022-10-10T14:18:52.613Z,96011.50
2022-10-10T14:21:20.852Z,95939.97
2022-10-10T14:23:48.698Z,96010.59
2022-10-10T14:26:18.991Z,96001.22
2022-10-10T14:28:47.453Z,95992.94
2022-10-10T14:31:15.359Z,96006.56
2022-10-10T14:33:43.232Z,96000.19
2022-10-10T14:36:14.384Z,96004.84
2022-10-10T14:38:42.247Z,95997.84
2022-10-10T14:41:13.007Z,96007.56
2022-10-10T14:43:45.519Z,96009.09
2022-10-10T14:46:18.378Z,96007.56
2022-10-10T14:48:46.401Z,96000.09
2022-10-10T14:51:33.894Z,95950.34
2022-10-10T14:54:11.179Z,95999.97
2022-10-10T14:57:08.445Z,95973.16
2022-10-10T14:59:48.041Z,95991.97
2022-10-10T15:02:18.650Z,95978.22
2022-10-10T15:04:46.571Z,95975.78
2022-10-10T15:07:16.369Z,95972.13
2022-10-10T15:10:09.568Z,95978.41
2022-10-10T15:12:32.673Z,95981.84
2022-10-10T15:15:02.901Z,95967.16
2022-10-10T15:17:33.757Z,95979.72
2022-10-10T15:20:01.889Z,95989.03
2022-10-10T15:22:31.589Z,95938.72
2022-10-10T15:24:59.914Z,95994.41
2022-10-10T15:27:28.368Z,95985.72
2022-10-10T15:29:58.096Z,95983.94
2022-10-10T15:32:26.717Z,95942.13
2022-10-10T15:34:54.682Z,95987.78
2022-10-10T15:37:26.548Z,95982.13
2022-10-10T15:39:55.821Z,95982.13
2022-10-10T15:42:23.776Z,95985.88
2022-10-10T15:44:52.353Z,95998.63
2022-10-10T15:47:21.643Z,95972.22
2022-10-10T15:49:49.876Z,95986.28
2022-10-10T15:52:18.316Z,95989.81
2022-10-10T15:54:49.682Z,95995.56
2022-10-10T15:57:19.275Z,96008.72
2022-10-10T15:59:47.792Z,95998.09
2022-10-10T16:02:15.972Z,95994.44
2022-10-10T16:04:43.854Z,95995.88
2022-10-10T16:07:26.890Z,95991.09
2022-10-10T16:09:57.895Z,95998.75
2022-10-10T16:12:27.313Z,96006.44
2022-10-10T16:14:55.487Z,96009.09
2022-10-10T16:17:23.949Z,96001.63
2022-10-10T16:19:52.393Z,96007.38
2022-10-10T16:22:20.632Z,95989.81
2022-10-10T16:25:17.265Z,95988.66
2022-10-10T16:27:38.720Z,95998.81
2022-10-10T16:30:08.238Z,95967.31
2022-10-10T16:32:41.790Z,95849.59
2022-10-10T16:35:11.231Z,96013.31
2022-10-10T16:37:39.323Z,96006.22
2022-10-10T16:40:08.344Z,96004.94
2022-10-10T16:42:36.320Z,96011.44
2022-10-10T16:45:06.653Z,96015.25
2022-10-10T16:47:34.614Z,96023.75
2022-10-10T16:50:03.100Z,96014.13
2022-10-10T16:52:33.001Z,96017.97
2022-10-10T16:55:00.881Z,96029.59
2022-10-10T16:57:28.774Z,96024.41
2022-10-10T16:59:56.654Z,96024.59
2022-10-10T17:02:25.976Z,96028.28
2022-10-10T17:04:53.822Z,96018.00
2022-10-10T17:07:21.821Z,96019.81
2022-10-10T17:09:49.720Z,96033.59
2022-10-10T17:12:17.916Z,96030.25
2022-10-10T17:14:45.861Z,96032.88
2022-10-10T17:17:14.124Z,96026.19
2022-10-10T17:19:43.583Z,96037.78
2022-10-10T17:22:11.521Z,96031.47
2022-10-10T17:24:39.394Z,96035.22
2022-10-10T17:27:07.394Z,95998.72
2022-10-10T17:29:35.324Z,96031.06
2022-10-10T17:32:06.507Z,96029.28
2022-10-10T17:34:35.230Z,96039.84
2022-10-10T17:37:04.998Z,96042.72
2022-10-10T17:39:33.090Z,96047.63
2022-10-10T17:42:01.123Z,96053.75
2022-10-10T17:44:29.149Z,96053.66
2022-10-10T17:46:57.051Z,96048.00
2022-10-10T17:49:25.113Z,96032.38
2022-10-10T17:51:53.013Z,96044.47
2022-10-10T17:54:23.228Z,96047.56
2022-10-10T17:56:51.295Z,96049.72
2022-10-10T17:59:19.183Z,96049.16
2022-10-10T18:01:47.029Z,96044.75
2022-10-10T18:04:16.552Z,96047.22
2022-10-10T18:06:44.570Z,96005.50
2022-10-10T18:09:12.608Z,96046.22
2022-10-10T18:11:41.867Z,96050.75
2022-10-10T18:14:09.851Z,96039.44
2022-10-10T18:16:38.112Z,96043.75
2022-10-10T18:19:08.149Z,96038.53
2022-10-10T18:21:36.259Z,96044.66
2022-10-10T18:24:04.435Z,96037.88
2022-10-10T18:26:33.706Z,96011.38
2022-10-10T18:29:03.052Z,96037.44
2022-10-10T18:31:33.149Z,95849.41
2022-10-10T18:34:01.762Z,96021.00
2022-10-10T18:36:32.077Z,96023.03
2022-10-10T18:39:00.764Z,96032.66
2022-10-10T18:41:34.231Z,96040.38
2022-10-10T18:44:04.867Z,96032.91
2022-10-10T18:46:32.927Z,96036.06
2022-10-10T18:49:02.151Z,96039.00
2022-10-10T18:51:31.223Z,95965.91
2022-10-10T18:54:02.208Z,96015.91
2022-10-10T18:56:31.497Z,96036.94
2022-10-10T18:59:02.200Z,96030.50
2022-10-10T19:01:35.241Z,96032.22
2022-10-10T19:04:04.605Z,96006.75
2022-10-10T19:06:32.671Z,96029.28
2022-10-10T19:09:02.503Z,96032.31
2022-10-10T19:11:32.295Z,96042.63
2022-10-10T19:14:01.407Z,96041.94
2022-10-10T19:16:29.549Z,96046.91
2022-10-10T19:18:59.749Z,96031.78
2022-10-10T19:21:29.862Z,96043.09
2022-10-10T19:23:59.833Z,96036.50
2022-10-10T19:26:33.112Z,96034.22
2022-10-10T19:29:06.418Z,95991.25
2022-10-10T19:31:34.743Z,96028.81
2022-10-10T19:34:04.138Z,96047.81
2022-10-10T19:36:32.011Z,96041.72
2022-10-10T19:39:00.924Z,96031.50
2022-10-10T19:41:29.798Z,96040.47
2022-10-10T19:43:58.710Z,96025.88
2022-10-10T19:46:28.004Z,96038.09
2022-10-10T19:48:58.931Z,96031.19
2022-10-10T19:51:29.725Z,96031.75
2022-10-10T19:53:57.732Z,96029.28
2022-10-10T19:56:26.980Z,96035.38
2022-10-10T19:58:56.043Z,96033.53
2022-10-10T20:01:29.100Z,95990.75
2022-10-10T20:03:57.904Z,96032.41
2022-10-10T20:06:26.055Z,96028.78
2022-10-10T20:08:55.444Z,96030.56
2022-10-10T20:11:26.250Z,96027.38
2022-10-10T20:13:55.450Z,96016.28
2022-10-10T20:16:24.473Z,96025.34
2022-10-10T20:18:52.405Z,96021.38
2022-10-10T20:21:23.713Z,95990.03
2022-10-10T20:23:51.792Z,96009.72
2022-10-10T20:26:23.438Z,96017.50
2022-10-10T20:28:52.347Z,96033.25
2022-10-10T20:31:22.398Z,96033.72
2022-10-10T20:33:51.414Z,96030.19
2022-10-10T20:36:21.235Z,96029.41
2022-10-10T20:38:53.784Z,96025.78
2022-10-10T20:41:24.545Z,96028.34
2022-10-10T20:43:58.271Z,96031.88
2022-10-10T20:46:27.683Z,96032.31
2022-10-10T20:48:56.160Z,96034.25
2022-10-10T20:51:24.356Z,96029.16
2022-10-10T20:53:56.987Z,96037.28
2022-10-10T20:56:26.963Z,96023.47
2022-10-10T20:58:55.015Z,95990.34
2022-10-10T21:01:25.087Z,96039.44
2022-10-10T21:03:53.367Z,96032.09
2022-10-10T21:06:23.922Z,95992.03
2022-10-10T21:08:52.400Z,96042.16
2022-10-10T21:11:20.979Z,96029.94
2022-10-10T21:13:56.355Z,96024.16
2022-10-10T21:16:26.154Z,96031.66
2022-10-10T21:18:58.055Z,96028.50
2022-10-10T21:21:27.061Z,96024.53
2022-10-10T21:23:56.488Z,96029.16
2022-10-10T21:26:26.621Z,96031.28
2022-10-10T21:28:56.491Z,96024.84
2022-10-10T21:31:26.317Z,96031.03
2022-10-10T21:33:54.613Z,96021.44
2022-10-10T21:36:24.228Z,96017.81
2022-10-10T21:38:52.116Z,96021.63
2022-10-10T21:41:21.588Z,96027.06
2022-10-10T21:43:52.210Z,96018.47
2022-10-10T21:46:23.458Z,96004.59
2022-10-10T21:48:52.310Z,96004.91
2022-10-10T21:51:20.635Z,96004.91
2022-10-10T21:53:49.177Z,96003.81
2022-10-10T21:56:17.808Z,95997.91
2022-10-10T21:58:46.316Z,96008.97
2022-10-10T22:01:16.486Z,96002.66
2022-10-10T22:03:47.205Z,95995.63
2022-10-10T22:06:18.172Z,95998.53
2022-10-10T22:08:47.492Z,95999.53
2022-10-10T22:11:17.573Z,95997.63
2022-10-10T22:13:45.511Z,95995.38
2022-10-10T22:16:13.545Z,95989.59
2022-10-10T22:18:41.920Z,95995.50
2022-10-10T22:21:13.812Z,95953.63
2022-10-10T22:23:41.998Z,95986.13
2022-10-10T22:26:11.412Z,95995.63
2022-10-10T22:28:39.771Z,95994.97
2022-10-10T22:31:08.449Z,95994.16
2022-10-10T22:33:36.376Z,96000.38
2022-10-10T22:36:05.110Z,95989.09
2022-10-10T22:38:37.039Z,95976.28
2022-10-10T22:41:04.902Z,95976.28
2022-10-10T22:43:32.862Z,95976.28
2022-10-10T22:46:00.867Z,95970.41
2022-10-10T22:48:28.950Z,95975.84
2022-10-10T22:51:01.616Z,95977.50
2022-10-10T22:53:29.903Z,95983.19
2022-10-10T22:55:59.547Z,95985.56
2022-10-10T22:58:27.584Z,95989.09
2022-10-10T23:00:55.517Z,95985.69
2022-10-10T23:03:23.426Z,95999.38
2022-10-10T23:05:51.239Z,95996.00
2022-10-10T23:08:19.072Z,95992.16
2022-10-10T23:10:48.013Z,95994.00
2022-10-10T23:13:17.191Z,95988.81
2022-10-10T23:15:45.195Z,95985.28
2022-10-10T23:18:13.105Z,95989.59
2022-10-10T23:20:40.963Z,95943.66
2022-10-10T23:23:08.868Z,96001.22
2022-10-10T23:25:41.821Z,96000.91
2022-10-10T23:28:10.151Z,95997.19
2022-10-10T23:30:41.040Z,95944.94
2022-10-10T23:33:09.267Z,95989.38
2022-10-10T23:35:37.220Z,95995.28
2022-10-10T23:38:05.311Z,95996.84
2022-10-10T23:40:34.126Z,95984.75
2022-10-10T23:43:02.122Z,95985.81
2022-10-10T23:45:30.004Z,95967.00
2022-10-10T23:47:59.269Z,95986.03
2022-10-10T23:50:27.112Z,95974.06
2022-10-10T23:52:54.946Z,95976.09
2022-10-10T23:55:22.905Z,95978.34
2022-10-10T23:57:50.764Z,95969.75
